Time;durP1;ratioP1;P1;durP2;ratioP2;P2;SDS_P1;SDS_P2;PMS_P1;PMS_P2;Temp;Humidity;BMP_temperature;BMP_pressure;BME280_temperature;BME280_humidity;BME280_pressure;Samples;Min_cycle;Max_cycle;Signal;HPM_P1;HPM_P2
2021/03/12 00:00:47;;;;;;;8.73;3.17;;;;;;;7.78;68.49;98937.19;5016526;28;20033;-62
2021/03/12 00:03:17;;;;;;;6.85;2.97;;;;;;;7.77;68.80;98943.19;5016885;28;20048;-62
2021/03/12 00:05:50;;;;;;;6.53;3.05;;;;;;;7.76;68.88;98950.06;5014712;28;20497;-62
2021/03/12 00:08:29;;;;;;;9.90;3.20;;;;;;;7.76;68.76;98946.59;5015281;28;20087;-62
2021/03/12 00:10:56;;;;;;;14.55;3.00;;;;;;;7.74;68.40;98944.03;4998727;28;20490;-62
2021/03/12 00:13:23;;;;;;;13.23;4.40;;;;;;;7.72;68.93;98955.16;5015012;28;20034;-62
2021/03/12 00:15:53;;;;;;;8.52;3.28;;;;;;;7.73;68.99;98944.00;4998640;28;20044;-62
2021/03/12 00:18:23;;;;;;;13.63;3.97;;;;;;;7.72;68.62;98962.91;5014686;28;20061;-62
2021/03/12 00:20:51;;;;;;;14.65;4.80;;;;;;;7.71;68.65;98956.00;4998429;28;20064;-62
2021/03/12 00:23:17;;;;;;;11.38;3.78;;;;;;;7.69;68.65;98956.00;5014918;28;20045;-62
2021/03/12 00:25:49;;;;;;;11.77;3.47;;;;;;;7.71;68.86;98971.47;5015721;28;20401;-62
2021/03/12 00:28:19;;;;;;;9.85;4.10;;;;;;;7.71;68.94;98980.09;5014790;28;20038;-62
2021/03/12 00:30:46;;;;;;;9.10;3.70;;;;;;;7.72;68.63;98978.38;5015949;28;20440;-62
2021/03/12 00:33:14;;;;;;;13.70;4.68;;;;;;;7.70;68.46;98983.53;5015823;28;20033;-62
2021/03/12 00:35:44;;;;;;;10.82;3.90;;;;;;;7.69;68.87;98980.94;5015903;28;20038;-61
2021/03/12 00:38:13;;;;;;;13.07;4.47;;;;;;;7.69;68.61;98992.09;5015839;28;20037;-62
2021/03/12 00:40:44;;;;;;;11.82;3.53;;;;;;;7.68;68.42;99002.44;5014792;28;20034;-62
2021/03/12 00:43:14;;;;;;;19.98;4.55;;;;;;;7.67;68.55;99006.69;5014663;28;20037;-62
2021/03/12 00:45:45;;;;;;;20.58;4.10;;;;;;;7.68;68.40;99002.44;5015624;28;20037;-62
2021/03/12 00:48:14;;;;;;;15.18;4.32;;;;;;;7.67;68.76;99026.47;5014670;28;20034;-62
2021/03/12 00:50:43;;;;;;;10.80;3.15;;;;;;;7.67;68.92;99017.00;5014105;28;20045;-62
2021/03/12 00:53:09;;;;;;;14.18;4.53;;;;;;;7.66;68.85;99037.66;5015545;28;20120;-62
2021/03/12 00:55:38;;;;;;;12.77;4.40;;;;;;;7.66;68.80;99032.47;4997975;28;20513;-61
2021/03/12 00:58:08;;;;;;;15.00;5.28;;;;;;;7.65;68.89;99035.91;5014219;28;20042;-62
2021/03/12 01:00:36;;;;;;;13.07;3.88;;;;;;;7.64;68.72;99057.38;5014420;28;20037;-61
2021/03/12 01:03:06;;;;;;;12.43;3.58;;;;;;;7.64;68.47;99055.66;5014106;28;20042;-62
2021/03/12 01:05:35;;;;;;;19.05;5.35;;;;;;;7.62;68.42;99070.28;5014069;28;20044;-62
2021/03/12 01:08:06;;;;;;;12.07;3.63;;;;;;;7.65;68.29;99072.00;5015213;28;20493;-62
2021/03/12 01:10:32;;;;;;;11.45;3.67;;;;;;;7.64;68.55;99062.53;5013749;28;20125;-62
2021/03/12 01:12:59;;;;;;;13.00;3.67;;;;;;;7.62;68.76;99053.06;5014296;28;20398;-62
2021/03/12 01:15:28;;;;;;;11.55;3.53;;;;;;;7.62;68.65;99057.38;5013512;28;20108;-62
2021/03/12 01:17:57;;;;;;;12.45;3.17;;;;;;;7.61;68.43;99071.97;5013876;28;20557;-63
2021/03/12 01:20:25;;;;;;;9.55;3.67;;;;;;;7.59;68.62;99057.34;5015316;28;20045;-62
2021/03/12 01:22:54;;;;;;;13.20;3.60;;;;;;;7.59;68.34;99063.34;5014619;28;20468;-60
2021/03/12 01:25:22;;;;;;;10.77;3.20;;;;;;;7.59;68.60;99060.75;5013731;28;20033;-62
2021/03/12 01:27:48;;;;;;;12.55;4.03;;;;;;;7.58;68.51;99064.19;5014733;28;20038;-61
2021/03/12 01:30:23;;;;;;;14.45;4.35;;;;;;;7.55;68.22;99068.44;5012984;28;20125;-61
2021/03/12 01:32:50;;;;;;;17.25;4.63;;;;;;;7.55;68.63;99065.88;5013534;28;20408;-62
2021/03/12 01:35:18;;;;;;;13.85;3.13;;;;;;;7.54;68.51;99072.75;5013451;28;20107;-62
2021/03/12 01:37:46;;;;;;;10.40;3.70;;;;;;;7.54;68.23;99079.59;5013598;28;20497;-62
2021/03/12 01:40:15;;;;;;;13.98;4.35;;;;;;;7.53;68.30;99073.59;5013935;28;20382;-62
2021/03/12 01:42:46;;;;;;;10.80;3.60;;;;;;;7.54;68.40;99071.88;5013024;28;20034;-62
2021/03/12 01:45:20;;;;;;;10.88;4.15;;;;;;;7.53;68.36;99076.19;5014500;28;20030;-62
2021/03/12 01:47:49;;;;;;;13.85;3.40;;;;;;;7.54;68.28;99069.28;4997357;28;20034;-62
2021/03/12 01:50:16;;;;;;;13.88;5.25;;;;;;;7.52;68.26;99077.03;5013169;28;20037;-62
2021/03/12 01:52:42;;;;;;;15.30;4.28;;;;;;;7.54;68.41;99084.75;4996705;28;20179;-62
2021/03/12 01:55:18;;;;;;;16.67;4.13;;;;;;;7.53;68.13;99077.88;5014673;28;20037;-60
2021/03/12 01:57:46;;;;;;;15.48;3.97;;;;;;;7.54;68.46;99087.34;5013033;28;20040;-62
2021/03/12 02:00:12;;;;;;;14.30;3.97;;;;;;;7.53;68.54;99083.91;5013969;28;20533;-62
2021/03/12 02:02:43;;;;;;;17.58;3.70;;;;;;;7.52;68.32;99087.34;5012990;28;20049;-62
2021/03/12 02:05:15;;;;;;;26.92;5.20;;;;;;;7.54;68.42;99085.66;4996491;28;20034;-60
2021/03/12 02:07:44;;;;;;;10.15;3.88;;;;;;;7.54;68.16;99088.22;4996731;28;20044;-60
2021/03/12 02:10:14;;;;;;;15.40;4.55;;;;;;;7.51;68.55;99083.03;5013279;28;20045;-60
2021/03/12 02:12:52;;;;;;;12.50;5.07;;;;;;;7.48;68.09;99085.56;5014603;28;20048;-60
2021/03/12 02:15:24;;;;;;;17.90;4.50;;;;;;;7.47;68.23;99081.25;5013353;28;20030;-60
2021/03/12 02:18:07;;;;;;;13.27;4.25;;;;;;;7.46;68.56;99087.25;5014297;28;20029;-61
2021/03/12 02:20:52;;;;;;;7.82;3.30;;;;;;;7.48;68.48;99085.56;5012935;28;20559;-61
2021/03/12 02:23:36;;;;;;;11.98;3.90;;;;;;;7.48;68.71;99085.56;5013069;28;20049;-60
2021/03/12 02:26:16;;;;;;;15.52;4.15;;;;;;;7.50;68.20;99089.03;5013817;28;20026;-60
2021/03/12 02:28:42;;;;;;;24.80;4.85;;;;;;;7.49;68.53;99087.28;5013952;28;20046;-61
2021/03/12 02:31:09;;;;;;;12.60;4.35;;;;;;;7.49;68.12;99101.88;5012450;28;20408;-60
2021/03/12 02:33:36;;;;;;;14.25;4.03;;;;;;;7.49;68.53;99094.16;5012575;28;20038;-60
2021/03/12 02:36:03;;;;;;;14.85;4.30;;;;;;;7.46;68.10;99090.72;5014337;28;20045;-60
2021/03/12 02:38:32;;;;;;;13.10;4.05;;;;;;;7.44;68.39;99091.50;5013387;28;20029;-60
2021/03/12 02:41:00;;;;;;;17.17;4.20;;;;;;;7.43;68.47;99095.81;4996154;28;20129;-62
2021/03/12 02:43:27;;;;;;;11.10;3.25;;;;;;;7.43;68.36;99098.38;5013747;28;20045;-60
2021/03/12 02:45:55;;;;;;;15.68;4.07;;;;;;;7.44;68.62;99097.56;4995959;28;20566;-61
2021/03/12 02:48:25;;;;;;;16.83;4.47;;;;;;;7.45;68.12;99108.72;5013612;28;20038;-61
2021/03/12 02:50:55;;;;;;;15.25;3.42;;;;;;;7.45;68.52;99108.72;5012460;28;20038;-60
2021/03/12 02:53:21;;;;;;;10.07;3.25;;;;;;;7.44;68.24;99099.25;5012644;28;20119;-62
2021/03/12 02:55:50;;;;;;;15.95;3.78;;;;;;;7.44;68.60;99105.28;5013408;28;20497;-60
2021/03/12 02:58:15;;;;;;;18.13;4.93;;;;;;;7.43;68.56;99100.09;5012339;28;20038;-61
2021/03/12 03:00:44;;;;;;;15.65;4.88;;;;;;;7.44;68.68;99106.97;5013568;28;20038;-62
2021/03/12 03:03:10;;;;;;;17.77;4.25;;;;;;;7.44;68.38;99113.03;5012019;28;20046;-60
2021/03/12 03:05:38;;;;;;;17.08;4.75;;;;;;;7.44;68.11;99104.41;4995898;28;20030;-62
2021/03/12 03:08:10;;;;;;;13.98;4.53;;;;;;;7.44;68.08;99106.97;4996181;28;20108;-62
2021/03/12 03:10:36;;;;;;;14.13;3.88;;;;;;;7.42;68.21;99106.09;5012759;28;20057;-60
2021/03/12 03:13:05;;;;;;;14.55;4.15;;;;;;;7.44;68.36;99109.56;5013392;28;20038;-60
2021/03/12 03:15:31;;;;;;;13.05;4.25;;;;;;;7.43;68.18;99111.28;5012212;28;20405;-62
2021/03/12 03:18:00;;;;;;;15.07;4.70;;;;;;;7.43;68.16;99121.59;5012310;28;20030;-62
2021/03/12 03:20:28;;;;;;;15.43;5.20;;;;;;;7.40;68.40;99116.38;5013388;28;20049;-61
2021/03/12 03:22:53;;;;;;;13.98;3.58;;;;;;;7.41;68.40;99117.25;5013397;28;20505;-62
2021/03/12 03:25:19;;;;;;;15.48;3.63;;;;;;;7.42;68.20;99113.81;5012835;28;20116;-62
2021/03/12 03:27:47;;;;;;;16.98;4.63;;;;;;;7.41;68.31;99119.81;5013242;28;20057;-61
2021/03/12 03:30:19;;;;;;;11.15;4.15;;;;;;;7.38;68.50;99118.06;5012378;28;20124;-60
2021/03/12 03:32:47;;;;;;;13.85;3.55;;;;;;;7.37;68.58;99126.66;5013558;28;20496;-62
2021/03/12 03:35:19;;;;;;;15.93;3.42;;;;;;;7.38;68.59;99123.22;5012856;28;20493;-62
2021/03/12 03:37:44;;;;;;;11.57;3.67;;;;;;;7.37;68.30;99120.66;4995582;28;20030;-62
2021/03/12 03:40:13;;;;;;;15.60;4.15;;;;;;;7.38;68.24;99122.38;5013120;28;20116;-62
2021/03/12 03:42:41;;;;;;;11.40;4.30;;;;;;;7.38;68.56;99122.38;5013254;28;20474;-60
2021/03/12 03:45:12;;;;;;;17.70;4.50;;;;;;;7.38;68.44;99132.69;5011782;28;20038;-60
2021/03/12 03:47:38;;;;;;;11.82;4.05;;;;;;;7.37;68.15;99129.22;5012914;28;20546;-62
2021/03/12 03:50:06;;;;;;;14.68;4.32;;;;;;;7.34;68.32;99141.22;5011523;28;20042;-62
2021/03/12 03:52:32;;;;;;;10.18;3.83;;;;;;;7.35;68.10;99130.91;5013561;28;20096;-62
2021/03/12 03:54:59;;;;;;;20.25;5.70;;;;;;;7.36;68.28;99144.69;5016359;28;20042;-62
2021/03/12 03:57:26;;;;;;;7.82;3.28;;;;;;;7.36;68.08;99142.97;5015871;28;20117;-62
2021/03/12 03:59:52;;;;;;;9.57;3.42;;;;;;;7.35;68.32;99151.53;5015520;28;20409;-62
2021/03/12 04:02:19;;;;;;;17.00;4.85;;;;;;;7.34;68.00;99144.66;5015248;28;20049;-62
2021/03/12 04:04:51;;;;;;;15.68;4.18;;;;;;;7.34;68.30;99136.06;5016413;28;20030;-62
2021/03/12 04:07:20;;;;;;;12.05;4.05;;;;;;;7.35;68.45;99155.84;5016224;28;20117;-62
2021/03/12 04:09:50;;;;;;;10.25;3.92;;;;;;;7.34;68.16;99152.38;5015240;28;20057;-62
2021/03/12 04:12:17;;;;;;;14.77;4.00;;;;;;;7.33;68.40;99150.66;5015243;28;20033;-62
2021/03/12 04:14:47;;;;;;;18.92;5.15;;;;;;;7.32;68.32;99159.22;4999006;28;20053;-62
2021/03/12 04:17:14;;;;;;;12.23;4.43;;;;;;;7.31;68.22;99148.06;5016301;28;20045;-61
2021/03/12 04:19:41;;;;;;;17.75;3.88;;;;;;;7.33;68.13;99150.66;5015129;28;20037;-62
2021/03/12 04:22:08;;;;;;;18.55;4.72;;;;;;;7.34;67.79;99156.69;5016117;28;20033;-60
2021/03/12 04:24:37;;;;;;;15.75;4.15;;;;;;;7.33;68.15;99155.81;4998357;28;20037;-60
2021/03/12 04:27:04;;;;;;;10.23;3.88;;;;;;;7.32;68.17;99156.63;5014781;28;20041;-61
2021/03/12 04:29:33;;;;;;;14.93;3.70;;;;;;;7.30;68.01;99171.25;5015682;28;20037;-60
2021/03/12 04:31:58;;;;;;;12.02;3.88;;;;;;;7.31;67.99;99165.25;5014684;28;20045;-60
2021/03/12 04:34:24;;;;;;;18.77;4.20;;;;;;;7.31;68.42;99163.53;5015706;28;20037;-61
2021/03/12 04:36:53;;;;;;;14.60;4.30;;;;;;;7.30;68.12;99173.81;5015220;28;20064;-61
2021/03/12 04:39:20;;;;;;;15.70;4.10;;;;;;;7.29;68.06;99166.94;5014355;28;20052;-62
2021/03/12 04:41:47;;;;;;;18.02;4.25;;;;;;;7.28;67.78;99157.47;5014252;28;20088;-62
2021/03/12 04:44:23;;;;;;;15.40;3.85;;;;;;;7.26;68.03;99157.41;5014298;28;20038;-62
2021/03/12 04:46:49;;;;;;;13.90;4.50;;;;;;;7.26;68.31;99160.00;5015634;28;20062;-61
2021/03/12 04:49:19;;;;;;;12.32;3.67;;;;;;;7.26;67.75;99154.00;5015591;28;20034;-62
2021/03/12 04:51:48;;;;;;;14.57;3.72;;;;;;;7.24;67.96;99160.81;5015631;28;20034;-62
2021/03/12 04:54:17;;;;;;;12.18;3.60;;;;;;;7.23;67.98;99161.66;5015443;28;20026;-62
2021/03/12 04:56:45;;;;;;;15.68;4.35;;;;;;;7.21;68.17;99174.53;5015107;28;20045;-62
2021/03/12 04:59:15;;;;;;;12.55;3.13;;;;;;;7.22;68.08;99168.56;4997799;28;20026;-62
2021/03/12 05:01:47;;;;;;;9.20;3.45;;;;;;;7.22;68.08;99177.97;5014153;28;20050;-62
2021/03/12 05:04:13;;;;;;;13.98;4.45;;;;;;;7.20;68.20;99171.94;5015549;28;20482;-62
2021/03/12 05:06:42;;;;;;;9.15;3.67;;;;;;;7.20;68.02;99166.78;5015118;28;20053;-62
2021/03/12 05:09:14;;;;;;;15.35;4.03;;;;;;;7.21;68.08;99173.66;5015404;28;20030;-60
2021/03/12 05:11:42;;;;;;;11.63;4.30;;;;;;;7.19;68.11;99171.06;5015330;28;20053;-62
2021/03/12 05:14:13;;;;;;;15.95;5.15;;;;;;;7.18;68.24;99174.50;5013743;28;20042;-63
2021/03/12 05:16:42;;;;;;;15.50;5.32;;;;;;;7.16;67.79;99177.03;5015484;28;20030;-62
2021/03/12 05:19:09;;;;;;;11.55;3.67;;;;;;;7.18;67.92;99171.91;5013883;28;20401;-62
2021/03/12 05:21:34;;;;;;;14.55;3.28;;;;;;;7.16;68.00;99182.19;5013752;28;20038;-59
2021/03/12 05:24:01;;;;;;;9.57;4.70;;;;;;;7.15;68.38;99174.44;5013357;28;20041;-62
2021/03/12 05:26:27;;;;;;;14.50;3.70;;;;;;;7.15;67.97;99177.00;5014933;28;20038;-62
2021/03/12 05:28:53;;;;;;;13.07;4.18;;;;;;;7.15;67.92;99175.31;5013640;28;20064;-61
2021/03/12 05:31:22;;;;;;;13.65;4.85;;;;;;;7.14;68.43;99178.75;4997964;28;20493;-62
2021/03/12 05:33:51;;;;;;;19.10;4.05;;;;;;;7.12;68.24;99174.38;5014481;28;20490;-61
2021/03/12 05:36:20;;;;;;;15.40;5.20;;;;;;;7.13;67.98;99181.28;5013485;28;20042;-61
2021/03/12 05:38:49;;;;;;;14.98;5.07;;;;;;;7.14;68.03;99177.84;5014910;28;20066;-62
2021/03/12 05:41:19;;;;;;;12.93;4.25;;;;;;;7.12;68.26;99179.53;5013610;28;20038;-62
2021/03/12 05:43:45;;;;;;;15.48;4.90;;;;;;;7.12;67.89;99184.69;5013938;28;20030;-62
2021/03/12 05:46:18;;;;;;;16.60;4.57;;;;;;;7.11;67.91;99177.78;5014603;28;20038;-61
2021/03/12 05:48:44;;;;;;;11.50;3.53;;;;;;;7.11;68.39;99183.84;5014378;28;20513;-61
2021/03/12 05:51:13;;;;;;;12.57;4.00;;;;;;;7.10;67.88;99181.22;5013725;28;20072;-61
2021/03/12 05:53:39;;;;;;;13.07;4.90;;;;;;;7.10;68.46;99181.22;5014316;28;20080;-61
2021/03/12 05:56:05;;;;;;;20.00;4.45;;;;;;;7.09;68.25;99188.09;5014207;28;20034;-62
2021/03/12 05:58:31;;;;;;;12.23;4.50;;;;;;;7.09;68.41;99180.38;5014663;28;20386;-62
2021/03/12 06:01:00;;;;;;;18.38;4.57;;;;;;;7.10;68.36;99181.22;5013365;28;20052;-61
2021/03/12 06:03:28;;;;;;;19.90;4.22;;;;;;;7.12;68.09;99189.84;5013363;28;20139;-61
2021/03/12 06:05:57;;;;;;;19.13;4.60;;;;;;;7.11;67.68;99186.41;5012776;28;20180;-61
2021/03/12 06:08:23;;;;;;;14.63;4.78;;;;;;;7.12;68.43;99190.72;5013994;28;20045;-61
2021/03/12 06:10:50;;;;;;;14.88;4.65;;;;;;;7.12;67.91;99180.41;5014008;28;20041;-62
2021/03/12 06:13:16;;;;;;;12.07;3.53;;;;;;;7.13;67.86;99187.31;5014181;28;20113;-62
2021/03/12 06:15:43;;;;;;;13.23;3.53;;;;;;;7.12;68.46;99179.53;5013419;28;20123;-61
2021/03/12 06:18:14;;;;;;;13.95;4.57;;;;;;;7.11;67.82;99185.53;5012856;28;20030;-62
2021/03/12 06:20:40;;;;;;;11.02;3.72;;;;;;;7.10;68.01;99187.25;5013656;28;20041;-61
2021/03/12 06:23:06;;;;;;;9.98;3.80;;;;;;;7.08;67.81;99193.22;5012808;28;20080;-62
2021/03/12 06:25:32;;;;;;;14.63;4.65;;;;;;;7.08;67.72;99191.50;5012789;28;20037;-62
2021/03/12 06:28:14;;;;;;;15.30;4.93;;;;;;;7.07;68.00;99186.34;5012799;28;20375;-61
2021/03/12 06:30:42;;;;;;;16.08;5.10;;;;;;;7.06;68.36;99192.34;5013823;28;20048;-62
2021/03/12 06:33:33;;;;;;;12.68;3.92;;;;;;;7.06;68.31;99202.66;5013809;28;20095;-61
2021/03/12 06:36:01;;;;;;;8.10;3.83;;;;;;;7.03;68.05;99195.72;5013439;28;20041;-61
2021/03/12 06:38:27;;;;;;;10.68;3.40;;;;;;;7.06;67.97;99202.66;5013950;28;20030;-61
2021/03/12 06:40:54;;;;;;;22.05;5.13;;;;;;;7.03;68.02;99200.88;4996143;28;20037;-61
2021/03/12 06:43:26;;;;;;;12.25;4.38;;;;;;;7.04;68.33;99202.59;5012651;28;20394;-61
2021/03/12 06:46:01;;;;;;;12.68;4.20;;;;;;;7.03;67.86;99193.13;5013619;28;20045;-62
2021/03/12 06:48:29;;;;;;;18.27;4.72;;;;;;;7.03;67.89;99202.59;5012335;28;20056;-61
2021/03/12 06:50:57;;;;;;;19.33;4.43;;;;;;;7.03;68.00;99200.00;5012421;28;20038;-61
2021/03/12 06:53:34;;;;;;;9.15;4.25;;;;;;;7.03;68.16;99207.75;5012098;28;20493;-61
2021/03/12 06:56:09;;;;;;;14.05;4.45;;;;;;;7.02;68.27;99204.28;5012534;28;20034;-61
2021/03/12 06:58:38;;;;;;;13.40;4.95;;;;;;;7.02;68.13;99212.00;5012399;28;20026;-61
2021/03/12 07:01:18;;;;;;;15.80;4.28;;;;;;;7.02;67.87;99209.44;5013297;28;20061;-62
2021/03/12 07:03:44;;;;;;;18.08;4.97;;;;;;;7.03;68.19;99211.16;5012817;28;20524;-61
2021/03/12 07:06:16;;;;;;;14.55;4.00;;;;;;;7.01;67.94;99216.31;5013348;28;20065;-61
2021/03/12 07:08:45;;;;;;;15.75;4.18;;;;;;;7.03;68.17;99215.47;5012309;28;20072;-61
2021/03/12 07:11:23;;;;;;;14.02;3.95;;;;;;;7.00;68.05;99217.16;5012333;28;20037;-62
2021/03/12 07:13:51;;;;;;;14.85;3.70;;;;;;;7.01;68.09;99218.88;5013513;28;20038;-61
2021/03/12 07:16:18;;;;;;;17.98;5.13;;;;;;;7.01;68.11;99218.88;5011956;28;20045;-61
2021/03/12 07:18:44;;;;;;;12.23;3.88;;;;;;;7.01;68.50;99221.47;5011860;28;20042;-62
2021/03/12 07:21:12;;;;;;;11.35;3.92;;;;;;;7.03;68.29;99221.47;5012009;28;20132;-61
2021/03/12 07:23:43;;;;;;;11.63;3.67;;;;;;;7.01;68.42;99216.31;5012396;28;20062;-61
2021/03/12 07:26:12;;;;;;;17.50;4.50;;;;;;;7.01;68.16;99224.03;5011672;28;20124;-62
2021/03/12 07:28:40;;;;;;;17.33;4.40;;;;;;;7.03;68.16;99223.19;5017127;28;20055;-62
2021/03/12 07:31:06;;;;;;;10.45;4.10;;;;;;;7.02;68.50;99217.16;5016706;28;20034;-61
2021/03/12 07:33:35;;;;;;;8.48;3.65;;;;;;;7.02;67.98;99214.59;5017094;28;20063;-62
2021/03/12 07:36:04;;;;;;;14.82;4.22;;;;;;;7.01;67.71;99221.47;5015803;28;20042;-61
2021/03/12 07:38:34;;;;;;;16.25;4.45;;;;;;;7.03;67.92;99218.91;5016919;28;20041;-62
2021/03/12 07:41:02;;;;;;;37.03;6.25;;;;;;;7.01;68.28;99218.88;5015747;28;20038;-62
2021/03/12 07:43:32;;;;;;;11.43;3.63;;;;;;;7.02;68.16;99209.44;5015683;28;20069;-61
2021/03/12 07:45:58;;;;;;;15.98;4.07;;;;;;;7.02;68.30;99212.00;5016639;28;20468;-61
2021/03/12 07:48:29;;;;;;;22.50;4.65;;;;;;;7.02;68.27;99219.75;5016781;28;20113;-61
2021/03/12 07:51:06;;;;;;;17.83;4.45;;;;;;;7.03;68.33;99221.47;5015867;28;20133;-62
2021/03/12 07:53:45;;;;;;;12.98;3.45;;;;;;;7.02;68.19;99224.88;5015260;28;20038;-61
2021/03/12 07:56:12;;;;;;;13.43;3.42;;;;;;;7.01;67.98;99213.72;5016707;28;20041;-61
2021/03/12 07:58:47;;;;;;;16.83;5.05;;;;;;;7.03;68.15;99229.19;4998926;28;20042;-61
2021/03/12 08:01:13;;;;;;;16.52;5.28;;;;;;;7.05;68.08;99224.09;5014968;28;20042;-63
2021/03/12 08:03:42;;;;;;;17.52;4.18;;;;;;;7.03;68.06;99221.47;5016310;28;20045;-62
2021/03/12 08:06:17;;;;;;;23.92;6.18;;;;;;;7.05;68.13;99227.53;5015158;28;20037;-62
2021/03/12 08:08:48;;;;;;;18.05;4.40;;;;;;;7.05;68.39;99213.78;5015812;28;20045;-61
2021/03/12 08:11:38;;;;;;;22.38;4.93;;;;;;;7.05;67.75;99224.94;5014963;28;20560;-61
2021/03/12 08:14:13;;;;;;;17.85;3.92;;;;;;;7.04;68.31;99218.06;5015224;28;20041;-62
2021/03/12 08:16:59;;;;;;;15.82;3.92;;;;;;;7.04;67.77;99219.78;5014890;28;20041;-61
2021/03/12 08:19:32;;;;;;;20.15;5.13;;;;;;;7.04;68.42;99215.47;5014682;28;20084;-61
2021/03/12 08:21:59;;;;;;;17.27;3.65;;;;;;;7.05;68.00;99219.78;5015731;28;20406;-61
2021/03/12 08:24:51;;;;;;;17.48;5.05;;;;;;;7.04;68.26;99227.50;5016040;28;20061;-62
2021/03/12 08:27:40;;;;;;;13.73;4.20;;;;;;;7.05;67.79;99234.41;5014944;28;20516;-62
2021/03/12 08:30:33;;;;;;;21.38;4.40;;;;;;;7.04;68.21;99232.66;5015050;28;20038;-61
2021/03/12 08:32:59;;;;;;;17.10;4.32;;;;;;;7.04;67.98;99241.25;5015743;28;20496;-62
2021/03/12 08:35:38;;;;;;;20.65;4.43;;;;;;;7.04;67.92;99235.25;5015974;28;20034;-61
2021/03/12 08:38:25;;;;;;;13.95;3.70;;;;;;;7.01;67.75;99234.34;4998404;28;20129;-61
2021/03/12 08:40:54;;;;;;;13.45;4.60;;;;;;;7.04;68.01;99230.09;5014366;28;20037;-61
2021/03/12 08:43:25;;;;;;;13.23;5.53;;;;;;;7.03;67.76;99233.50;5015755;28;20033;-62
2021/03/12 08:45:53;;;;;;;20.30;5.05;;;;;;;7.03;68.24;99226.63;5014261;28;20089;-61
2021/03/12 08:48:26;;;;;;;15.45;4.68;;;;;;;7.03;68.20;99228.34;5015083;28;20038;-62
2021/03/12 08:51:06;;;;;;;12.85;3.97;;;;;;;7.04;68.24;99232.66;5015232;28;20038;-62
2021/03/12 08:53:34;;;;;;;14.25;4.43;;;;;;;7.05;68.30;99236.97;5014432;28;20481;-61
2021/03/12 08:56:01;;;;;;;19.48;4.80;;;;;;;7.05;68.08;99232.69;4997983;28;20049;-62
2021/03/12 08:58:34;;;;;;;16.58;5.13;;;;;;;7.06;67.65;99226.69;5015189;28;20049;-61
2021/03/12 09:01:07;;;;;;;12.20;4.00;;;;;;;7.05;68.01;99222.38;5014280;28;20038;-61
2021/03/12 09:03:36;;;;;;;23.13;5.35;;;;;;;7.09;68.36;99228.44;5014366;28;20137;-62
2021/03/12 09:06:04;;;;;;;15.63;4.75;;;;;;;7.09;68.09;99225.84;5013637;28;20036;-62
2021/03/12 09:08:31;;;;;;;14.95;4.03;;;;;;;7.09;68.14;99216.44;5014123;28;20037;-62
2021/03/12 09:10:57;;;;;;;17.23;4.05;;;;;;;7.12;68.24;99213.03;5015441;28;20038;-62
2021/03/12 09:13:35;;;;;;;15.40;3.85;;;;;;;7.12;68.00;99211.34;5013979;28;20117;-62
2021/03/12 09:16:03;;;;;;;18.70;4.55;;;;;;;7.15;68.49;99200.22;5015152;28;20043;-62
2021/03/12 09:18:30;;;;;;;23.30;6.22;;;;;;;7.15;68.38;99200.22;5013785;28;20503;-62
2021/03/12 09:20:58;;;;;;;17.08;5.53;;;;;;;7.16;68.25;99209.69;5014988;28;20034;-62
2021/03/12 09:23:44;;;;;;;16.20;4.57;;;;;;;7.14;68.29;99198.47;5015056;28;20041;-62
2021/03/12 09:26:09;;;;;;;18.83;4.90;;;;;;;7.16;67.90;99202.78;5013366;28;20034;-62
2021/03/12 09:28:38;;;;;;;20.83;4.80;;;;;;;7.16;68.32;99202.78;5014959;28;20562;-62
2021/03/12 09:31:05;;;;;;;13.18;5.10;;;;;;;7.19;67.77;99201.13;5015122;28;20030;-62
2021/03/12 09:33:39;;;;;;;15.05;4.07;;;;;;;7.18;67.97;99195.09;5014291;28;20121;-62
2021/03/12 09:36:25;;;;;;;15.38;4.18;;;;;;;7.20;68.04;99184.81;5015206;28;20045;-61
2021/03/12 09:38:52;;;;;;;18.27;4.22;;;;;;;7.21;67.92;99176.25;5014548;28;20038;-62
2021/03/12 09:41:26;;;;;;;12.90;3.97;;;;;;;7.20;68.38;99179.66;5014638;28;20036;-62
2021/03/12 09:44:07;;;;;;;13.70;4.20;;;;;;;7.21;68.33;99181.41;5014674;28;20064;-62
2021/03/12 09:46:37;;;;;;;13.68;4.32;;;;;;;7.22;68.05;99177.97;4997436;28;20041;-62
2021/03/12 09:49:11;;;;;;;14.48;4.75;;;;;;;7.22;68.26;99184.00;5012914;28;20045;-62
2021/03/12 09:51:39;;;;;;;13.27;4.72;;;;;;;7.21;68.06;99182.28;5013082;28;20052;-62
2021/03/12 09:54:07;;;;;;;13.13;4.50;;;;;;;7.21;67.88;99190.00;5014568;28;20038;-61
2021/03/12 09:56:33;;;;;;;21.02;4.78;;;;;;;7.21;68.18;99197.75;5014418;28;20073;-62
2021/03/12 09:58:59;;;;;;;16.58;4.05;;;;;;;7.22;67.93;99178.84;5014145;28;20124;-62
2021/03/12 10:01:34;;;;;;;16.88;4.15;;;;;;;7.22;68.05;99177.97;5014066;28;20129;-62
2021/03/12 10:04:00;;;;;;;17.92;4.45;;;;;;;7.22;67.60;99176.28;5013399;28;20511;-61
2021/03/12 10:06:26;;;;;;;22.65;5.85;;;;;;;7.22;68.11;99173.72;5014248;28;20108;-60
2021/03/12 10:09:08;;;;;;;27.83;5.35;;;;;;;7.22;68.19;99176.28;5014279;28;20046;-60
2021/03/12 10:11:45;;;;;;;14.27;4.38;;;;;;;7.24;67.99;99172.00;5013286;28;20036;-60
2021/03/12 10:14:37;;;;;;;15.98;3.88;;;;;;;7.24;67.78;99163.41;5014447;28;20041;-60
2021/03/12 10:17:11;;;;;;;15.52;4.57;;;;;;;7.24;67.52;99153.09;5012525;28;20109;-60
2021/03/12 10:19:59;;;;;;;12.73;4.47;;;;;;;7.29;67.74;99152.31;5012850;28;20049;-60
2021/03/12 10:22:37;;;;;;;12.00;4.13;;;;;;;7.31;67.54;99147.22;5014243;28;20038;-60
2021/03/12 10:25:12;;;;;;;11.63;3.95;;;;;;;7.34;67.77;99142.06;5012640;28;20509;-60
2021/03/12 10:27:39;;;;;;;;;;;;;;;7.31;67.61;99142.91;5014488;28;20109;-60
2021/03/12 10:30:12;;;;;;;29.42;4.45;;;;;;;7.32;68.42;99136.91;5012508;28;19925;-61
2021/03/12 10:32:46;;;;;;;16.02;4.43;;;;;;;7.32;67.64;99131.75;5013875;28;20403;-60
2021/03/12 10:35:40;;;;;;;22.60;4.97;;;;;;;7.33;67.62;99122.28;5014100;28;20124;-61
2021/03/12 10:38:25;;;;;;;15.48;4.40;;;;;;;7.32;67.62;99128.28;5013967;28;20120;-60
2021/03/12 10:40:51;;;;;;;13.52;3.63;;;;;;;7.35;67.77;99125.75;5012457;28;20026;-62
2021/03/12 10:43:27;;;;;;;18.27;4.80;;;;;;;7.32;67.79;99111.13;5012559;28;20042;-60
2021/03/12 10:45:55;;;;;;;15.88;4.85;;;;;;;7.34;67.61;99128.34;5012404;28;20045;-62
2021/03/12 10:48:27;;;;;;;16.33;3.67;;;;;;;7.33;67.72;99111.97;5012379;28;20497;-62
2021/03/12 10:51:03;;;;;;;14.07;4.65;;;;;;;7.33;68.09;99109.41;5013685;28;20125;-62
2021/03/12 10:53:29;;;;;;;14.13;4.45;;;;;;;7.35;67.70;99099.97;5013643;28;20159;-62
2021/03/12 10:56:04;;;;;;;9.32;3.53;;;;;;;7.38;67.86;99101.75;5012423;28;20049;-62
2021/03/12 10:58:34;;;;;;;14.00;3.60;;;;;;;7.38;67.54;99099.19;5013581;28;20128;-62
2021/03/12 11:01:14;;;;;;;15.85;4.57;;;;;;;7.39;67.75;99088.88;5013438;28;20088;-62
2021/03/12 11:03:42;;;;;;;17.50;4.38;;;;;;;7.40;67.81;99095.75;4979109;28;20106;-62
2021/03/12 11:06:09;;;;;;;11.07;4.07;;;;;;;7.41;67.72;99088.88;4978596;28;20034;-62
2021/03/12 11:08:35;;;;;;;10.75;3.05;;;;;;;7.40;67.83;99089.72;4977089;28;20042;-62
2021/03/12 11:11:05;;;;;;;18.50;4.18;;;;;;;7.39;68.17;99095.75;4978570;28;20089;-62
2021/03/12 11:13:31;;;;;;;18.23;4.18;;;;;;;7.39;67.52;99078.56;4978239;28;20042;-62
2021/03/12 11:15:57;;;;;;;13.45;4.50;;;;;;;7.39;67.82;99075.13;4978328;28;20042;-62
2021/03/12 11:18:26;;;;;;;15.50;4.28;;;;;;;7.40;67.57;99076.84;4978092;28;20505;-62
2021/03/12 11:20:52;;;;;;;14.43;4.90;;;;;;;7.40;67.55;99063.94;4977234;28;20039;-62
2021/03/12 11:23:21;;;;;;;20.88;5.18;;;;;;;7.40;67.58;99058.78;4976704;28;20035;-62
2021/03/12 11:25:46;;;;;;;10.35;3.25;;;;;;;7.39;67.78;99072.56;4976867;28;20487;-63
2021/03/12 11:28:14;;;;;;;14.95;5.30;;;;;;;7.38;67.59;99056.22;4977030;28;20111;-61
2021/03/12 11:30:40;;;;;;;13.65;4.20;;;;;;;7.39;67.32;99064.81;4978026;28;20066;-61
2021/03/12 11:33:05;;;;;;;19.00;4.45;;;;;;;7.40;67.70;99063.94;4960749;28;20494;-62
2021/03/12 11:35:31;;;;;;;16.88;4.78;;;;;;;7.40;67.75;99056.22;4978180;28;20092;-62
2021/03/12 11:37:57;;;;;;;13.18;3.42;;;;;;;7.41;67.64;99055.38;4977662;28;20038;-62
2021/03/12 11:40:23;;;;;;;13.23;3.92;;;;;;;7.41;67.51;99035.63;4976797;28;20042;-62
2021/03/12 11:42:49;;;;;;;15.93;4.65;;;;;;;7.41;67.84;99038.22;4976316;28;20126;-62
2021/03/12 11:45:16;;;;;;;23.13;3.65;;;;;;;7.41;67.73;99037.31;4977530;28;20066;-62
2021/03/12 11:47:42;;;;;;;19.95;5.47;;;;;;;7.43;67.39;99018.47;4977325;28;20034;-61